Time;durP1;ratioP1;P1;durP2;ratioP2;P2;SDS_P1;SDS_P2;PMS_P1;PMS_P2;Temp;Humidity;BMP_temperature;BMP_pressure;BME280_temperature;BME280_humidity;BME280_pressure;Samples;Min_cycle;Max_cycle;Signal;HPM_P1;HPM_P2
2022/06/01 00:02:05;;;;;;;27.35;7.15;;;;;;;28.05;51.24;97413.06;4852483;29;20128;-69
2022/06/01 00:04:48;;;;;;;20.92;7.53;;;;;;;28.04;50.70;97406.13;4852798;29;20053;-71
2022/06/01 00:07:37;;;;;;;25.67;7.70;;;;;;;27.93;48.73;97414.56;4852662;29;20443;-69
2022/06/01 00:10:19;;;;;;;25.10;7.85;;;;;;;27.77;49.08;97420.91;4851990;29;20495;-69
2022/06/01 00:13:08;;;;;;;30.80;9.05;;;;;;;27.75;50.91;97418.44;4847832;29;20085;-68
2022/06/01 00:15:57;;;;;;;28.25;8.02;;;;;;;27.93;52.25;97419.88;4840806;29;20161;-71
2022/06/01 00:18:40;;;;;;;21.63;7.78;;;;;;;28.12;54.08;97424.53;4850621;29;20427;-70
2022/06/01 00:21:28;;;;;;;31.83;8.07;;;;;;;28.09;55.28;97430.25;4857782;29;20633;-69
2022/06/01 00:24:10;;;;;;;22.35;7.15;;;;;;;28.08;55.74;97428.59;4851790;29;20045;-69
2022/06/01 00:26:59;;;;;;;24.40;7.30;;;;;;;27.90;51.18;97430.81;4851693;29;20065;-68
2022/06/01 00:29:42;;;;;;;27.50;7.43;;;;;;;27.99;52.30;97435.00;4851622;29;20053;-68
2022/06/01 00:32:31;;;;;;;30.73;7.15;;;;;;;28.09;54.02;97435.53;4851015;29;20139;-68
2022/06/01 00:35:16;;;;;;;21.42;7.07;;;;;;;28.14;56.00;97438.44;4852958;29;20488;-68
2022/06/01 00:38:04;;;;;;;25.05;7.72;;;;;;;28.10;55.66;97440.63;4853042;29;20576;-68
2022/06/01 00:40:51;;;;;;;30.92;8.07;;;;;;;28.04;52.30;97443.19;4854154;29;20064;-68
2022/06/01 00:43:51;;;;;;;25.48;7.63;;;;;;;27.97;55.16;97445.78;4842454;29;20060;-69
2022/06/01 00:46:41;;;;;;;27.33;7.55;;;;;;;28.01;57.55;97451.53;4851794;29;20745;-70
2022/06/01 00:49:28;;;;;;;26.40;8.00;;;;;;;27.97;57.33;97452.91;4849056;29;20042;-69
2022/06/01 00:52:37;;;;;;;24.80;8.18;;;;;;;27.72;54.92;97449.72;4852197;29;20145;-68
2022/06/01 00:55:35;;;;;;;33.42;8.90;;;;;;;27.74;56.75;97448.56;4851369;29;20126;-69
2022/06/01 00:58:22;;;;;;;23.20;8.30;;;;;;;27.86;57.87;97446.25;4847583;29;20082;-69
2022/06/01 01:01:21;;;;;;;26.08;8.02;;;;;;;27.85;58.69;97455.22;4852377;29;20118;-69
2022/06/01 01:04:00;;;;;;;23.38;8.13;;;;;;;27.92;59.34;97453.47;4852596;29;20049;-69
2022/06/01 01:06:50;;;;;;;24.88;8.05;;;;;;;27.99;60.68;97469.44;4852208;29;20146;-69
2022/06/01 01:09:32;;;;;;;27.42;8.90;;;;;;;28.03;60.57;97468.03;4822275;29;20156;-69
2022/06/01 01:12:22;;;;;;;37.20;8.57;;;;;;;27.97;59.07;97476.72;4851039;29;20126;-69
2022/06/01 01:15:05;;;;;;;29.20;8.63;;;;;;;28.04;60.11;97477.63;4853225;29;20053;-69
2022/06/01 01:17:55;;;;;;;31.77;7.93;;;;;;;28.14;62.21;97488.75;4838880;29;20057;-69
2022/06/01 01:20:36;;;;;;;35.40;8.38;;;;;;;28.16;58.87;97494.72;4836425;29;20049;-69
2022/06/01 01:23:54;;;;;;;27.00;9.35;;;;;;;28.24;58.50;97491.97;4852501;29;20427;-69
2022/06/01 01:26:32;;;;;;;31.52;9.80;;;;;;;28.33;59.99;97498.81;4852679;29;20587;-69
2022/06/01 01:29:40;;;;;;;30.98;8.45;;;;;;;28.35;56.15;97504.72;4853740;29;20086;-70
2022/06/01 01:32:22;;;;;;;25.73;8.77;;;;;;;28.46;57.66;97514.84;4852531;29;20050;-69
2022/06/01 01:35:11;;;;;;;30.65;9.32;;;;;;;28.55;62.76;97511.06;4852108;29;20123;-67
2022/06/01 01:37:56;;;;;;;28.80;8.43;;;;;;;28.70;63.54;97507.53;4852691;29;20045;-67
2022/06/01 01:40:45;;;;;;;27.63;9.23;;;;;;;28.80;61.75;97508.09;4868977;29;20142;-67
2022/06/01 01:43:28;;;;;;;26.20;8.93;;;;;;;28.83;61.11;97513.81;4870792;29;20465;-68
2022/06/01 01:46:17;;;;;;;26.83;9.38;;;;;;;29.00;58.00;97517.03;4870508;29;20564;-68
2022/06/01 01:49:06;;;;;;;31.02;9.60;;;;;;;29.35;63.62;97517.13;4871207;29;20052;-68
2022/06/01 01:51:53;;;;;;;31.20;9.80;;;;;;;29.58;58.09;97529.16;4871388;29;20049;-68
2022/06/01 01:55:02;;;;;;;32.40;9.50;;;;;;;29.90;55.72;97526.88;4870714;29;20065;-68
2022/06/01 01:57:59;;;;;;;33.03;8.65;;;;;;;30.21;56.09;97532.59;4865838;29;20061;-68
2022/06/01 02:00:53;;;;;;;37.17;10.03;;;;;;;30.43;53.28;97527.97;4848638;29;20062;-68
2022/06/01 02:03:55;;;;;;;34.55;10.43;;;;;;;30.69;54.33;97525.41;4851947;29;20049;-67
2022/06/01 02:06:51;;;;;;;26.92;7.85;;;;;;;31.16;50.74;97528.97;4845256;29;20118;-67
2022/06/01 02:12:40;;;;;;;27.27;9.65;;;;;;;31.44;51.57;97532.25;4852326;29;20099;-68
2022/06/01 02:12:43;;;;;;;42.22;11.27;;;;;;;31.58;49.44;97535.72;4855091;29;20140;-68
2022/06/01 02:15:34;;;;;;;24.67;8.38;;;;;;;31.69;48.66;97535.09;4854001;29;20058;-68
2022/06/01 02:18:28;;;;;;;38.22;9.48;;;;;;;31.91;52.60;97541.00;4851812;29;20482;-68
2022/06/01 02:21:18;;;;;;;46.70;10.20;;;;;;;32.16;48.26;97552.66;4853178;29;20101;-68
2022/06/01 02:24:07;;;;;;;31.42;9.48;;;;;;;32.52;49.32;97551.25;4844811;29;20076;-69
2022/06/01 02:26:58;;;;;;;39.63;9.38;;;;;;;32.55;49.23;97556.19;4854178;29;20049;-69
2022/06/01 02:30:09;;;;;;;33.10;8.95;;;;;;;32.81;47.85;97558.72;4838977;29;20427;-69
2022/06/01 02:33:01;;;;;;;33.42;9.63;;;;;;;33.00;45.03;97562.28;4854196;29;20057;-69
2022/06/01 02:35:47;;;;;;;37.22;9.30;;;;;;;33.31;48.42;97567.63;4854452;29;20086;-69
2022/06/01 02:38:46;;;;;;;26.58;8.60;;;;;;;33.48;51.14;97562.56;4855169;29;20065;-69
2022/06/01 02:44:35;;;;;;;44.88;10.77;;;;;;;34.05;47.90;97571.31;4848467;29;20060;-69
2022/06/01 02:47:17;;;;;;;36.33;9.18;;;;;;;34.09;44.85;97575.16;4846617;29;20132;-70
2022/06/01 02:50:16;;;;;;;32.25;9.07;;;;;;;33.93;43.82;97581.06;4844319;29;20061;-69
2022/06/01 02:52:59;;;;;;;28.60;8.65;;;;;;;34.30;48.15;97579.28;4855518;29;20057;-70
2022/06/01 02:55:48;;;;;;;30.67;8.63;;;;;;;34.10;42.46;97588.31;4848128;29;20054;-69
2022/06/01 02:58:30;;;;;;;32.03;8.40;;;;;;;34.42;44.88;97582.81;4852497;29;20057;-70
2022/06/01 03:01:19;;;;;;;28.48;8.98;;;;;;;34.25;40.28;97585.28;4844049;29;20397;-70
2022/06/01 03:04:01;;;;;;;26.00;8.18;;;;;;;34.68;45.55;97595.88;4854308;29;20056;-69
2022/06/01 03:06:50;;;;;;;32.80;8.55;;;;;;;35.03;42.22;97589.88;4835990;29;20056;-69
2022/06/01 03:09:49;;;;;;;29.23;7.93;;;;;;;34.85;44.45;97596.91;4852378;29;20148;-70
2022/06/01 03:12:39;;;;;;;25.58;8.70;;;;;;;35.16;40.34;97592.34;4852903;29;20113;-69
2022/06/01 03:15:24;;;;;;;35.92;8.77;;;;;;;35.44;45.49;97592.53;4853400;29;20045;-69
2022/06/01 03:18:29;;;;;;;32.67;8.85;;;;;;;35.11;47.09;97593.06;4854568;29;20621;-68
2022/06/01 03:21:19;;;;;;;35.25;9.43;;;;;;;35.60;37.70;97604.47;4855505;29;20072;-69
2022/06/01 03:24:01;;;;;;;28.65;8.55;;;;;;;35.96;39.11;97609.63;4860900;29;20049;-69
2022/06/01 03:26:49;;;;;;;33.35;8.40;;;;;;;35.92;39.66;97603.09;4867979;29;20041;-69
2022/06/01 03:29:40;;;;;;;34.85;9.13;;;;;;;36.15;41.43;97612.19;4856250;29;20093;-69
2022/06/01 03:32:29;;;;;;;25.40;8.10;;;;;;;36.21;39.71;97608.59;4856792;29;20541;-69
2022/06/01 03:35:13;;;;;;;30.63;7.93;;;;;;;36.48;35.74;97608.91;4856981;29;20064;-69
2022/06/01 03:38:03;;;;;;;27.23;8.35;;;;;;;36.78;36.72;97607.66;4854442;29;20049;-68
2022/06/01 03:40:51;;;;;;;21.83;7.70;;;;;;;36.61;34.33;97606.75;4853497;29;20136;-68
2022/06/01 03:46:40;;;;;;;28.05;7.28;;;;;;;37.08;34.90;97610.09;4854325;29;20378;-69
2022/06/01 03:49:23;;;;;;;19.77;6.78;;;;;;;37.38;34.49;97620.56;4854009;29;20143;-68
2022/06/01 03:52:19;;;;;;;19.48;6.60;;;;;;;36.97;34.83;97615.50;4854179;29;20057;-68
2022/06/01 03:55:09;;;;;;;21.52;6.72;;;;;;;37.23;37.30;97620.31;4854299;29;20046;-68
2022/06/01 03:57:57;;;;;;;22.38;6.88;;;;;;;37.40;38.46;97618.47;4860256;29;20362;-69
2022/06/01 04:00:39;;;;;;;42.38;7.78;;;;;;;37.34;32.26;97619.44;4853500;29;20057;-69
2022/06/01 04:03:28;;;;;;;33.88;6.10;;;;;;;37.54;30.97;97625.13;4847125;29;20062;-69
2022/06/01 04:06:10;;;;;;;25.33;7.22;;;;;;;37.44;31.10;97622.28;4851306;29;20064;-69
2022/06/01 04:08:59;;;;;;;25.77;6.68;;;;;;;37.27;32.71;97626.03;4853006;29;20723;-68
2022/06/01 04:11:41;;;;;;;23.77;7.90;;;;;;;37.84;31.98;97632.06;4842466;29;20383;-69
2022/06/01 04:14:32;;;;;;;16.98;5.90;;;;;;;38.12;34.73;97625.81;4847074;29;20746;-67
2022/06/01 04:17:21;;;;;;;32.33;6.35;;;;;;;37.92;30.68;97623.59;4851535;29;20807;-69
2022/06/01 04:20:12;;;;;;;22.67;5.70;;;;;;;37.79;29.24;97623.94;4852364;29;20118;-70
2022/06/01 04:22:55;;;;;;;35.55;6.45;;;;;;;37.68;29.75;97624.84;4851117;29;21455;-70
2022/06/01 04:25:44;;;;;;;24.13;6.40;;;;;;;38.23;28.99;97631.09;4851063;29;20106;-71
2022/06/01 04:28:26;;;;;;;28.52;6.07;;;;;;;38.05;30.79;97627.84;4855599;29;20153;-76
2022/06/01 04:31:17;;;;;;;36.47;7.60;;;;;;;38.14;32.09;97626.38;4870497;29;20056;-76
2022/06/01 04:34:06;;;;;;;32.38;9.75;;;;;;;38.54;34.15;97631.50;4854829;29;20049;-77
2022/06/01 04:36:55;;;;;;;25.08;6.43;;;;;;;38.86;30.71;97632.44;4832729;29;20545;-75
2022/06/01 04:39:37;;;;;;;28.42;6.90;;;;;;;39.16;29.66;97620.34;4841805;29;20054;-77
2022/06/01 04:42:26;;;;;;;28.52;5.88;;;;;;;39.08;29.05;97629.72;4850979;29;20126;-75
2022/06/01 04:45:12;;;;;;;31.90;7.00;;;;;;;39.06;29.81;97623.75;4848916;29;20050;-77
2022/06/01 04:48:01;;;;;;;26.48;6.05;;;;;;;39.00;28.51;97625.59;4854828;29;20497;-77
2022/06/01 04:50:44;;;;;;;23.20;6.70;;;;;;;39.18;32.00;97621.75;4847945;29;20114;-75
2022/06/01 04:53:39;;;;;;;26.73;7.40;;;;;;;38.85;31.48;97629.97;4849323;29;20128;-78
2022/06/01 04:56:15;;;;;;;39.40;7.70;;;;;;;38.44;31.25;97625.97;4850612;29;20049;-75
2022/06/01 04:59:10;;;;;;;29.23;6.97;;;;;;;38.36;30.77;97624.50;4835961;29;20088;-76
2022/06/01 05:01:46;;;;;;;28.25;6.07;;;;;;;37.75;30.71;97623.63;4849034;29;20646;-73
2022/06/01 05:04:34;;;;;;;29.73;7.88;;;;;;;38.54;33.59;97623.44;4835325;29;20524;-76
2022/06/01 05:07:16;;;;;;;32.25;6.68;;;;;;;38.55;30.79;97623.19;4851550;29;20493;-76
2022/06/01 05:10:06;;;;;;;26.05;6.93;;;;;;;38.77;30.62;97628.56;4829139;29;20142;-76
2022/06/01 05:12:48;;;;;;;;;;;;;;;38.34;30.73;97626.63;4852700;29;20556;-76
2022/06/01 05:15:58;;;;;;;26.13;8.10;;;;;;;38.52;30.76;97631.75;4850346;29;20375;-76
2022/06/01 05:18:47;;;;;;;23.55;6.72;;;;;;;38.21;34.02;97611.69;4843593;29;20049;-77
2022/06/01 05:21:36;;;;;;;20.52;7.65;;;;;;;38.57;30.85;97628.28;4851867;29;20126;-75
2022/06/01 05:24:18;;;;;;;24.30;6.20;;;;;;;38.69;30.85;97626.31;4851491;29;20077;-77
2022/06/01 05:27:07;;;;;;;22.27;7.20;;;;;;;38.89;30.56;97625.69;4851859;29;20046;-75
2022/06/01 05:29:51;;;;;;;28.98;7.68;;;;;;;38.13;29.02;97616.66;4855100;29;20049;-76
2022/06/01 05:32:39;;;;;;;25.00;6.90;;;;;;;38.40;30.23;97619.44;4847517;29;20046;-76
2022/06/01 05:35:29;;;;;;;31.10;7.70;;;;;;;38.46;29.23;97613.88;4843554;29;20137;-69
2022/06/01 05:38:11;;;;;;;;;;;;;;;38.94;29.18;97609.63;4851966;29;20482;-69
2022/06/01 05:41:00;;;;;;;28.17;6.43;;;;;;;38.86;29.50;97610.06;4852068;29;20063;-72
2022/06/01 05:43:42;;;;;;;32.47;8.20;;;;;;;38.71;33.68;97609.91;4845936;29;20074;-71
2022/06/01 05:46:35;;;;;;;33.60;7.00;;;;;;;38.63;32.93;97609.25;4839648;29;20638;-71
2022/06/01 05:49:17;;;;;;;23.20;7.07;;;;;;;38.65;34.94;97607.13;4844733;29;20490;-71
2022/06/01 05:52:06;;;;;;;35.40;8.85;;;;;;;38.81;34.31;97608.09;4853830;29;20064;-69
2022/06/01 05:54:55;;;;;;;29.38;6.63;;;;;;;38.64;32.67;97604.69;4850556;29;20069;-70
2022/06/01 05:57:45;;;;;;;23.15;6.32;;;;;;;38.75;33.49;97603.75;4851367;29;20046;-68
2022/06/01 06:00:27;;;;;;;;;;;;;;;38.64;35.48;97597.41;4846551;29;20158;-70
2022/06/01 06:03:15;;;;;;;28.77;6.85;;;;;;;38.82;32.22;97598.97;4851123;29;19960;-70
2022/06/01 06:06:16;;;;;;;30.98;7.57;;;;;;;38.80;30.95;97594.88;4865438;29;20053;-70
2022/06/01 06:09:09;;;;;;;28.75;7.55;;;;;;;38.82;31.53;97593.56;4852336;29;20053;-70
2022/06/01 06:11:58;;;;;;;28.13;7.28;;;;;;;38.83;29.64;97597.91;4851714;29;20053;-71
2022/06/01 06:14:48;;;;;;;28.80;8.00;;;;;;;38.40;28.38;97597.91;4858915;29;20760;-70
2022/06/01 06:17:30;;;;;;;;;;;;;;;38.77;31.89;97596.22;4851328;29;20081;-71
2022/06/01 06:20:19;;;;;;;38.97;9.50;;;;;;;38.29;29.73;97592.41;4856308;29;19928;-70
2022/06/01 06:23:01;;;;;;;;;;;;;;;38.43;30.52;97594.72;4852353;29;20049;-71
2022/06/01 06:25:54;;;;;;;36.22;8.75;;;;;;;38.47;30.59;97593.16;4841611;29;19928;-71
2022/06/01 06:28:44;;;;;;;29.55;7.22;;;;;;;38.70;31.21;97589.41;4847327;29;20173;-70
2022/06/01 06:31:26;;;;;;;33.55;7.53;;;;;;;38.53;30.62;97584.09;4855834;29;20065;-70
2022/06/01 06:34:23;;;;;;;25.08;6.80;;;;;;;38.69;33.50;97583.22;4862821;29;20120;-71
2022/06/01 06:36:59;;;;;;;23.77;7.05;;;;;;;38.70;31.81;97579.44;4850413;29;20053;-70
2022/06/01 06:39:47;;;;;;;32.20;7.43;;;;;;;38.82;31.54;97579.28;4852884;29;20049;-69
2022/06/01 06:42:29;;;;;;;23.92;6.53;;;;;;;38.44;30.46;97578.31;4852895;29;20100;-71
2022/06/01 06:45:19;;;;;;;25.77;7.65;;;;;;;38.52;30.93;97575.22;4843973;29;20131;-70
2022/06/01 06:48:01;;;;;;;;;;;;;;;38.73;33.39;97565.47;4841421;29;20462;-71
2022/06/01 06:50:51;;;;;;;35.90;7.25;;;;;;;38.89;31.35;97558.34;4833464;29;19937;-71
2022/06/01 06:53:34;;;;;;;33.08;7.22;;;;;;;38.86;31.65;97553.47;4832893;29;20103;-71
2022/06/01 06:56:23;;;;;;;25.20;7.18;;;;;;;38.78;29.39;97548.56;4843647;29;20174;-72
2022/06/01 06:59:15;;;;;;;34.17;7.13;;;;;;;38.71;30.38;97548.75;4828374;29;20041;-71
2022/06/01 07:02:05;;;;;;;27.13;7.25;;;;;;;38.97;27.98;97550.66;4855847;29;20106;-70
2022/06/01 07:04:47;;;;;;;;;;;;;;;39.08;29.78;97538.09;4855775;29;20474;-71
2022/06/01 07:07:36;;;;;;;19.35;6.22;;;;;;;39.12;31.96;97538.38;4854322;29;19948;-69
2022/06/01 07:10:18;;;;;;;34.88;7.90;;;;;;;39.18;33.74;97523.88;4870332;29;20487;-69
2022/06/01 07:13:07;;;;;;;30.33;6.90;;;;;;;39.19;33.19;97515.56;4874116;29;20052;-70
2022/06/01 07:15:49;;;;;;;29.33;6.25;;;;;;;39.13;32.46;97526.53;4854582;29;20073;-69
2022/06/01 07:18:41;;;;;;;30.55;7.15;;;;;;;39.00;30.79;97520.50;4854987;29;20072;-70
2022/06/01 07:21:30;;;;;;;29.85;7.30;;;;;;;39.13;33.29;97513.88;4854779;29;20482;-69
2022/06/01 07:24:13;;;;;;;;;;;;;;;39.07;29.47;97520.28;4849419;29;20045;-70
2022/06/01 07:27:01;;;;;;;28.52;6.93;;;;;;;39.07;33.33;97509.50;4854448;29;20432;-70
2022/06/01 07:29:43;;;;;;;22.60;6.32;;;;;;;39.01;30.56;97514.06;4844825;29;20054;-70
2022/06/01 07:32:32;;;;;;;21.75;6.82;;;;;;;39.06;31.16;97504.38;4845581;29;20119;-71
2022/06/01 07:35:21;;;;;;;28.88;6.03;;;;;;;38.96;31.52;97505.91;4843047;29;20544;-69
2022/06/01 07:44:22;;;;;;;34.15;6.00;;;;;;;38.91;26.25;97492.38;4853925;29;20795;-71
2022/06/01 07:47:05;;;;;;;30.50;8.05;;;;;;;39.07;28.21;97495.22;4853980;29;20045;-71
2022/06/01 07:50:16;;;;;;;30.20;5.97;;;;;;;38.97;26.63;97485.97;4853269;29;20769;-71
2022/06/01 07:53:24;;;;;;;26.70;7.20;;;;;;;38.88;27.00;97476.69;4843438;29;20041;-70
2022/06/01 07:56:19;;;;;;;38.55;7.25;;;;;;;38.98;26.67;97476.81;4833984;29;20086;-70
2022/06/01 07:58:55;;;;;;;39.78;7.28;;;;;;;38.86;26.27;97472.66;4845745;29;21145;-69
2022/06/01 08:01:44;;;;;;;;;;;;;;;38.96;31.14;97467.38;4847348;29;20466;-70
2022/06/01 08:04:26;;;;;;;36.38;7.10;;;;;;;38.84;28.49;97464.84;4849715;29;20485;-71
2022/06/01 08:07:21;;;;;;;29.95;7.65;;;;;;;38.74;25.58;97459.34;4840062;29;20460;-71
2022/06/01 08:10:03;;;;;;;;;;;;;;;38.76;27.50;97454.53;4853389;29;20061;-70
2022/06/01 08:13:07;;;;;;;42.25;7.60;;;;;;;38.88;29.55;97441.69;4854089;29;19963;-70
2022/06/01 08:15:56;;;;;;;33.03;8.32;;;;;;;38.90;28.35;97446.81;4852882;29;20132;-71
2022/06/01 08:18:45;;;;;;;27.95;6.60;;;;;;;38.81;29.89;97435.69;4852146;29;20062;-70
2022/06/01 08:21:28;;;;;;;37.08;6.93;;;;;;;38.80;27.98;97439.47;4848616;29;20049;-71
2022/06/01 08:24:18;;;;;;;42.05;7.88;;;;;;;38.75;28.35;97433.22;4852540;29;20136;-71
2022/06/01 08:26:59;;;;;;;;;;;;;;;38.78;27.04;97435.41;4854373;29;20153;-71
2022/06/01 08:29:47;;;;;;;30.95;7.95;;;;;;;38.75;29.74;97425.16;4852935;29;19928;-71
2022/06/01 08:32:29;;;;;;;37.70;8.95;;;;;;;38.62;30.04;97418.31;4854044;29;20058;-72
2022/06/01 08:35:20;;;;;;;38.60;8.77;;;;;;;38.54;24.88;97419.59;4853237;29;20056;-71
2022/06/01 08:38:03;;;;;;;31.38;6.90;;;;;;;38.62;26.72;97407.53;4846334;29;20056;-71
2022/06/01 08:41:13;;;;;;;32.97;7.20;;;;;;;38.57;28.80;97402.09;4855117;29;20050;-72
2022/06/01 08:43:59;;;;;;;29.58;8.43;;;;;;;38.58;25.32;97403.72;4853075;29;20048;-71
2022/06/01 08:46:48;;;;;;;36.15;6.35;;;;;;;38.56;26.64;97392.38;4854631;29;20780;-71
2022/06/01 08:49:33;;;;;;;29.58;6.65;;;;;;;38.26;29.38;97382.94;4853049;29;20472;-72
2022/06/01 08:52:21;;;;;;;28.80;7.28;;;;;;;38.09;29.61;97393.00;4853431;29;20080;-71
2022/06/01 08:55:10;;;;;;;45.50;7.83;;;;;;;38.11;26.13;97379.31;4850927;29;20742;-70
2022/06/01 08:58:19;;;;;;;31.98;6.93;;;;;;;38.04;30.50;97374.09;4848391;29;20046;-71
2022/06/01 09:01:53;;;;;;;29.40;6.82;;;;;;;38.28;26.51;97367.38;4858025;29;20041;-70
2022/06/01 09:05:15;;;;;;;27.35;7.45;;;;;;;38.32;24.68;97358.75;4845549;29;20355;-69
2022/06/01 09:08:13;;;;;;;41.33;8.38;;;;;;;38.27;25.70;97362.22;4812315;29;20052;-71
2022/06/01 09:11:12;;;;;;;34.08;6.60;;;;;;;38.28;26.63;97358.47;4843072;29;20125;-71
2022/06/01 09:14:11;;;;;;;34.63;7.68;;;;;;;38.10;26.27;97362.34;4850300;29;20049;-71
2022/06/01 09:17:02;;;;;;;34.40;6.43;;;;;;;38.05;24.26;97362.31;4852522;29;20120;-72
2022/06/01 09:22:54;;;;;;;34.75;6.75;;;;;;;38.07;28.94;97341.34;4826612;29;20057;-72
2022/06/01 09:25:40;;;;;;;35.55;6.70;;;;;;;38.06;28.39;97338.91;4851474;29;20065;-71
2022/06/01 09:28:30;;;;;;;28.85;6.82;;;;;;;37.79;29.64;97336.16;4854682;29;20122;-71
2022/06/01 09:31:24;;;;;;;;;;;;;;;37.69;29.28;97328.78;4851637;29;20143;-71
2022/06/01 09:34:14;;;;;;;39.13;8.38;;;;;;;37.65;32.20;97322.31;4854036;29;19935;-70
2022/06/01 09:37:36;;;;;;;36.50;7.15;;;;;;;37.72;29.55;97320.22;4852504;29;20088;-71
2022/06/01 09:40:31;;;;;;;43.47;8.18;;;;;;;37.90;28.66;97325.28;4818174;29;20070;-71
2022/06/01 09:43:31;;;;;;;32.65;7.13;;;;;;;37.82;31.61;97322.22;4843126;29;20177;-71
2022/06/01 09:46:33;;;;;;;33.67;7.35;;;;;;;37.75;29.29;97321.63;4854051;29;20403;-71
2022/06/01 09:49:42;;;;;;;36.83;7.60;;;;;;;37.69;30.39;97309.16;4850625;29;20054;-71
2022/06/01 09:52:40;;;;;;;36.97;7.50;;;;;;;37.75;29.53;97310.84;4851549;29;20546;-70
2022/06/01 09:55:31;;;;;;;28.02;7.40;;;;;;;37.52;31.67;97303.81;4843960;29;20480;-72
2022/06/01 10:08:09;;;;;;;24.80;7.00;;;;;;;37.71;27.09;97286.34;4851716;29;20142;-71
2022/06/01 10:11:05;;;;;;;30.05;6.90;;;;;;;37.75;27.20;97292.84;4845795;29;20064;-71
2022/06/01 10:13:57;;;;;;;28.30;6.50;;;;;;;38.00;26.49;97286.06;4842527;29;20066;-71
2022/06/01 10:16:52;;;;;;;31.85;6.82;;;;;;;37.90;28.36;97286.81;4843152;29;20049;-71
2022/06/01 10:20:11;;;;;;;38.90;8.18;;;;;;;37.91;27.93;97285.75;4853810;29;20076;-71
2022/06/01 10:23:17;;;;;;;41.97;8.07;;;;;;;37.80;30.20;97278.63;4850539;29;20062;-71
2022/06/01 10:26:20;;;;;;;26.95;6.97;;;;;;;37.63;31.82;97275.22;4846071;29;20118;-70
2022/06/01 10:29:12;;;;;;;33.22;7.03;;;;;;;37.61;30.65;97277.34;4854734;29;20066;-71
2022/06/01 10:32:12;;;;;;;26.40;7.35;;;;;;;37.50;30.80;97277.22;4855836;29;20346;-70
2022/06/01 10:35:10;;;;;;;27.25;7.82;;;;;;;37.30;30.78;97270.78;4830365;29;20057;-71
2022/06/01 10:38:08;;;;;;;24.48;5.78;;;;;;;37.12;31.57;97275.38;4854315;29;20138;-71
2022/06/01 10:40:54;;;;;;;23.45;7.57;;;;;;;36.96;31.05;97268.19;4853855;29;20045;-70
2022/06/01 10:44:02;;;;;;;40.90;6.65;;;;;;;36.88;33.68;97262.47;4854671;29;20049;-70
2022/06/01 10:47:04;;;;;;;44.70;7.30;;;;;;;36.89;28.86;97264.06;4853850;29;20054;-71
2022/06/01 10:50:04;;;;;;;29.13;7.13;;;;;;;36.97;30.05;97271.69;4853008;29;20704;-72
2022/06/01 10:53:08;;;;;;;29.73;7.35;;;;;;;37.35;26.07;97274.38;4853573;29;20077;-70
2022/06/01 10:55:56;;;;;;;32.65;6.85;;;;;;;37.14;28.11;97261.72;4854540;29;20065;-71
2022/06/01 10:58:46;;;;;;;26.83;7.00;;;;;;;36.92;31.28;97260.88;4855433;29;20490;-70
2022/06/01 11:02:02;;;;;;;32.35;7.45;;;;;;;36.79;32.69;97256.69;4853550;29;20734;-71
2022/06/01 11:05:01;;;;;;;33.70;7.60;;;;;;;36.58;32.83;97252.06;4848347;29;20131;-70
2022/06/01 11:08:22;;;;;;;31.65;7.40;;;;;;;36.53;30.10;97249.31;4853047;29;20383;-71
2022/06/01 11:11:13;;;;;;;29.67;7.55;;;;;;;36.50;33.30;97244.41;4855085;29;20046;-71
2022/06/01 11:14:25;;;;;;;33.88;9.68;;;;;;;36.33;33.53;97247.13;4853119;29;20557;-69
2022/06/01 11:17:50;;;;;;;30.83;7.40;;;;;;;36.26;31.41;97238.44;4861361;29;20105;-72
2022/06/01 11:21:03;;;;;;;29.55;6.95;;;;;;;36.18;34.49;97236.94;4852356;29;20072;-72
2022/06/01 11:24:03;;;;;;;27.08;6.97;;;;;;;36.21;34.17;97241.03;4846119;29;20483;-71
2022/06/01 11:27:31;;;;;;;31.63;7.18;;;;;;;36.60;27.90;97237.34;4862633;29;20149;-71
2022/06/01 11:30:48;;;;;;;36.88;7.03;;;;;;;36.35;30.44;97242.34;4850203;29;20053;-73
2022/06/01 11:33:42;;;;;;;26.40;7.45;;;;;;;36.15;33.90;97234.75;4854390;29;20589;-73
2022/06/01 11:36:48;;;;;;;23.92;6.78;;;;;;;36.00;33.24;97232.63;4853328;29;20046;-72
2022/06/01 11:39:45;;;;;;;22.77;7.45;;;;;;;35.81;34.80;97231.25;4849284;29;20085;-71
2022/06/01 11:42:51;;;;;;;37.35;7.30;;;;;;;35.67;34.99;97235.25;4850976;29;20165;-72
2022/06/01 11:45:48;;;;;;;35.45;6.60;;;;;;;35.71;32.42;97230.22;4864025;29;20052;-72
2022/06/01 11:48:44;;;;;;;29.75;7.10;;;;;;;35.88;31.17;97231.91;4866964;29;20049;-70
2022/06/01 11:51:53;;;;;;;44.33;6.95;;;;;;;35.90;31.51;97235.16;4858878;29;20049;-68
2022/06/01 11:54:37;;;;;;;26.63;6.15;;;;;;;35.88;31.11;97231.91;4836749;29;20544;-69
2022/06/01 11:57:51;;;;;;;34.35;5.88;;;;;;;35.77;30.65;97235.44;4852042;29;20129;-74
2022/06/01 12:00:51;;;;;;;25.30;6.60;;;;;;;35.86;28.44;97233.19;4839873;29;20062;-68
2022/06/01 12:03:47;;;;;;;23.90;5.88;;;;;;;35.76;29.19;97227.69;4852655;29;20046;-68
2022/06/01 12:06:51;;;;;;;32.92;6.40;;;;;;;35.91;26.15;97236.78;4842948;29;20049;-69
2022/06/01 12:09:35;;;;;;;28.23;6.90;;;;;;;35.99;27.06;97239.06;4850597;29;20431;-70
2022/06/01 12:12:46;;;;;;;30.50;7.55;;;;;;;36.15;28.22;97242.00;4853258;29;20065;-70
2022/06/01 12:16:09;;;;;;;32.28;6.35;;;;;;;36.27;27.61;97243.56;4841206;29;20638;-70
2022/06/01 12:19:12;;;;;;;24.67;6.53;;;;;;;36.30;27.77;97242.25;4851737;29;20460;-70
2022/06/01 12:28:30;;;;;;;33.10;6.47;;;;;;;36.28;28.89;97239.00;4846732;29;20064;-69
2022/06/01 12:28:56;;;;;;;36.53;6.78;;;;;;;36.25;28.04;97232.25;4849756;29;20053;-69
2022/06/01 12:31:39;;;;;;;24.50;5.82;;;;;;;36.23;27.98;97228.22;4852063;29;20053;-70
2022/06/01 12:34:35;;;;;;;30.30;6.32;;;;;;;36.18;28.67;97236.94;4851456;29;20060;-71
2022/06/01 12:37:40;;;;;;;29.80;6.25;;;;;;;36.16;27.55;97238.25;4852061;29;20053;-69
2022/06/01 12:40:29;;;;;;;35.53;6.80;;;;;;;36.03;30.59;97236.69;4838715;29;20058;-71
2022/06/01 12:43:18;;;;;;;40.10;9.18;;;;;;;35.97;29.30;97240.38;4833887;29;20065;-70
2022/06/01 12:46:08;;;;;;;28.02;5.60;;;;;;;35.89;30.33;97249.63;4850430;29;20053;-69
2022/06/01 12:48:51;;;;;;;20.75;5.75;;;;;;;35.86;27.67;97238.56;4851920;29;20066;-69
2022/06/01 12:51:39;;;;;;;26.70;5.57;;;;;;;35.74;27.31;97246.69;4852415;29;20141;-70
2022/06/01 12:54:31;;;;;;;25.92;5.45;;;;;;;35.64;29.52;97239.22;4852269;29;20057;-69
2022/06/01 12:57:31;;;;;;;18.48;5.72;;;;;;;35.50;30.78;97242.44;4848970;29;20049;-69
2022/06/01 13:00:21;;;;;;;27.30;5.57;;;;;;;35.35;28.56;97242.97;4849650;29;20049;-69
2022/06/01 13:03:18;;;;;;;20.23;5.55;;;;;;;35.26;28.73;97244.41;4852626;29;20123;-68
2022/06/01 13:05:58;;;;;;;33.33;9.75;;;;;;;35.10;32.86;97235.22;4848894;29;20069;-67
2022/06/01 13:08:58;;;;;;;40.80;7.45;;;;;;;34.97;29.72;97248.88;4846982;29;20061;-66
2022/06/01 13:11:43;;;;;;;36.03;7.60;;;;;;;34.90;30.76;97251.69;4850565;29;20744;-68
2022/06/01 13:14:34;;;;;;;27.40;6.90;;;;;;;34.85;31.32;97251.56;4848024;29;20065;-69
2022/06/01 13:17:25;;;;;;;34.25;8.43;;;;;;;34.78;32.45;97255.44;4846019;29;20054;-69
2022/06/01 13:20:21;;;;;;;29.20;6.60;;;;;;;34.70;29.57;97255.75;4840995;29;20045;-71
2022/06/01 13:22:58;;;;;;;35.92;7.88;;;;;;;34.63;34.67;97250.53;4839901;29;20070;-71
2022/06/01 13:25:48;;;;;;;36.95;7.57;;;;;;;34.50;34.66;97246.22;4839460;29;20162;-68
2022/06/01 13:28:37;;;;;;;28.95;7.00;;;;;;;34.46;31.07;97262.97;4851782;29;20049;-67
2022/06/01 13:31:20;;;;;;;39.30;7.55;;;;;;;34.42;32.75;97259.94;4849505;29;20145;-67
2022/06/01 13:34:11;;;;;;;40.17;10.50;;;;;;;34.35;34.34;97269.94;4848180;29;20641;-66
2022/06/01 13:36:53;;;;;;;46.78;10.77;;;;;;;34.25;34.83;97269.69;4848069;29;20053;-67
2022/06/01 13:39:47;;;;;;;54.63;11.10;;;;;;;34.20;34.28;97274.91;4846458;29;20526;-67
2022/06/01 13:42:52;;;;;;;55.05;11.48;;;;;;;34.19;30.38;97275.94;4830876;29;20057;-69
2022/06/01 13:45:34;;;;;;;37.03;8.27;;;;;;;34.23;30.58;97281.66;4851382;29;20053;-68
2022/06/01 13:48:52;;;;;;;40.95;8.45;;;;;;;34.25;31.10;97269.69;4868855;29;20049;-68
2022/06/01 13:51:47;;;;;;;37.42;7.35;;;;;;;34.22;32.32;97270.13;4866630;29;20045;-68
2022/06/01 13:54:33;;;;;;;51.35;8.63;;;;;;;34.12;33.38;97269.88;4866596;29;20387;-69